createdAt,value
2023-03-06T00:01:25.301Z,-2.68
2023-03-06T00:04:14.135Z,-2.68
2023-03-06T00:07:03.180Z,-2.71
2023-03-06T00:09:52.280Z,-2.74
2023-03-06T00:12:41.447Z,-2.77
2023-03-06T00:15:30.336Z,-2.79
2023-03-06T00:18:19.187Z,-2.81
2023-03-06T00:21:08.829Z,-2.83
2023-03-06T00:23:58.440Z,-2.82
2023-03-06T00:26:47.221Z,-2.81
2023-03-06T00:29:36.893Z,-2.78
2023-03-06T00:32:26.823Z,-2.77
2023-03-06T00:35:17.065Z,-2.77
2023-03-06T00:38:05.832Z,-2.78
2023-03-06T00:40:54.842Z,-2.82
2023-03-06T00:43:43.590Z,-2.84
2023-03-06T00:46:33.104Z,-2.88
2023-03-06T00:49:21.735Z,-2.93
2023-03-06T00:52:11.013Z,-2.94
2023-03-06T00:55:00.484Z,-2.93
2023-03-06T00:57:49.632Z,-2.95
2023-03-06T01:00:38.638Z,-2.95
2023-03-06T01:03:28.444Z,-2.94
2023-03-06T01:06:17.579Z,-2.92
2023-03-06T01:09:06.674Z,-2.95
2023-03-06T01:11:55.994Z,-2.98
2023-03-06T01:14:45.729Z,-3.02
2023-03-06T01:17:34.573Z,-3.06
2023-03-06T01:20:25.206Z,-3.11
2023-03-06T01:23:14.277Z,-3.14
2023-03-06T01:26:04.154Z,-3.16
2023-03-06T01:28:52.872Z,-3.18
2023-03-06T01:31:41.886Z,-3.20
2023-03-06T01:34:30.888Z,-3.20
2023-03-06T01:37:20.013Z,-3.21
2023-03-06T01:40:10.732Z,-3.24
2023-03-06T01:43:29.141Z,-3.28
2023-03-06T01:46:32.836Z,-3.37
2023-03-06T01:49:28.930Z,-3.43
2023-03-06T01:52:21.927Z,-3.50
2023-03-06T01:55:16.322Z,-3.61
2023-03-06T01:58:09.025Z,-3.70
2023-03-06T02:05:59.472Z,-3.88
2023-03-06T02:08:51.675Z,-3.90
2023-03-06T02:11:44.368Z,-3.90
2023-03-06T02:14:33.202Z,-3.91
2023-03-06T02:17:23.582Z,-3.93
2023-03-06T02:20:22.811Z,-3.94
2023-03-06T02:23:23.293Z,-3.97
2023-03-06T02:26:12.448Z,-4.00
2023-03-06T02:29:01.305Z,-4.01
2023-03-06T02:31:50.672Z,-4.00
2023-03-06T02:34:39.682Z,-4.01
2023-03-06T02:37:29.400Z,-3.99
2023-03-06T02:40:20.709Z,-3.95
2023-03-06T02:43:13.232Z,-3.90
2023-03-06T02:46:02.294Z,-3.87
2023-03-06T02:48:50.972Z,-3.85
2023-03-06T02:51:39.713Z,-3.84
2023-03-06T02:54:28.436Z,-3.83
2023-03-06T02:57:17.192Z,-3.80
2023-03-06T03:00:07.341Z,-3.80
2023-03-06T03:02:56.942Z,-3.76
2023-03-06T03:05:45.657Z,-3.72
2023-03-06T03:08:41.384Z,-3.65
2023-03-06T03:11:31.159Z,-3.59
2023-03-06T03:14:20.024Z,-3.52
2023-03-06T03:17:09.406Z,-3.47
2023-03-06T03:19:58.182Z,-3.44
2023-03-06T03:22:55.493Z,-3.42
2023-03-06T03:25:44.385Z,-3.43
2023-03-06T03:28:33.275Z,-3.44
2023-03-06T03:31:22.212Z,-3.47
2023-03-06T03:34:12.016Z,-3.47
2023-03-06T03:37:01.762Z,-3.49
2023-03-06T03:39:50.686Z,-3.49
2023-03-06T03:42:39.739Z,-3.48
2023-03-06T03:45:28.968Z,-3.46
2023-03-06T03:48:18.201Z,-3.42
2023-03-06T03:51:12.943Z,-3.40
2023-03-06T03:54:07.016Z,-3.39
2023-03-06T03:57:01.197Z,-3.39
2023-03-06T03:59:54.390Z,-3.38
2023-03-06T04:02:47.856Z,-3.37
2023-03-06T04:05:47.183Z,-3.36
2023-03-06T04:08:37.357Z,-3.35
2023-03-06T04:11:26.566Z,-3.32
2023-03-06T04:14:15.663Z,-3.27
2023-03-06T04:17:04.782Z,-3.23
2023-03-06T04:19:53.729Z,-3.18
2023-03-06T04:22:43.526Z,-3.15
2023-03-06T04:25:32.874Z,-3.14
2023-03-06T04:28:21.874Z,-3.15
2023-03-06T04:31:14.373Z,-3.15
2023-03-06T04:34:03.271Z,-3.16
2023-03-06T04:36:52.389Z,-3.17
2023-03-06T04:39:41.369Z,-3.15
2023-03-06T04:42:30.277Z,-3.13
2023-03-06T04:45:19.052Z,-3.11
2023-03-06T04:48:07.965Z,-3.08
2023-03-06T04:50:56.758Z,-3.05
2023-03-06T04:53:45.676Z,-3.02
2023-03-06T04:56:34.850Z,-3.02
2023-03-06T04:59:23.564Z,-3.01
2023-03-06T05:02:12.210Z,-3.02
2023-03-06T05:05:01.432Z,-3.02
2023-03-06T05:07:50.362Z,-3.01
2023-03-06T05:10:39.192Z,-2.98
2023-03-06T05:13:29.236Z,-2.96
2023-03-06T05:16:18.277Z,-2.92
2023-03-06T05:19:07.149Z,-2.88
2023-03-06T05:21:55.870Z,-2.86
2023-03-06T05:24:44.808Z,-2.85
2023-03-06T05:27:34.251Z,-2.85
2023-03-06T05:30:23.552Z,-2.84
2023-03-06T05:33:12.388Z,-2.85
2023-03-06T05:36:02.151Z,-2.85
2023-03-06T05:38:51.039Z,-2.83
2023-03-06T05:41:40.099Z,-2.79
2023-03-06T05:44:34.341Z,-2.74
2023-03-06T05:47:23.025Z,-2.70
2023-03-06T05:50:13.958Z,-2.66
2023-03-06T05:53:02.825Z,-2.59
2023-03-06T05:55:58.962Z,-2.52
2023-03-06T05:58:48.693Z,-2.47
2023-03-06T06:01:37.450Z,-2.42
2023-03-06T06:04:26.749Z,-2.38
2023-03-06T06:07:16.663Z,-2.32
2023-03-06T06:10:06.734Z,-2.26
2023-03-06T06:12:55.470Z,-2.20
2023-03-06T06:15:44.344Z,-2.13
2023-03-06T06:18:33.136Z,-2.07
2023-03-06T06:21:21.915Z,-2.01
2023-03-06T06:24:10.591Z,-1.97
2023-03-06T06:27:02.591Z,-1.96
2023-03-06T06:29:52.700Z,-1.96
2023-03-06T06:32:41.863Z,-1.94
2023-03-06T06:35:30.676Z,-1.91
2023-03-06T06:38:19.983Z,-1.87
2023-03-06T06:41:38.824Z,-1.85
2023-03-06T06:44:19.294Z,-1.82
2023-03-06T06:47:25.401Z,-1.78
2023-03-06T06:50:14.557Z,-1.74
2023-03-06T06:53:03.250Z,-1.69
2023-03-06T06:55:52.331Z,-1.67
2023-03-06T06:58:41.197Z,-1.64
2023-03-06T07:01:30.148Z,-1.62
2023-03-06T07:04:20.135Z,-1.60
2023-03-06T07:07:09.142Z,-1.57
2023-03-06T07:09:57.908Z,-1.50
2023-03-06T07:12:47.249Z,-1.43
2023-03-06T07:15:36.095Z,-1.37
2023-03-06T07:18:25.114Z,-1.34
2023-03-06T07:21:14.463Z,-1.29
2023-03-06T07:24:03.564Z,-1.27
2023-03-06T07:26:52.602Z,-1.26
2023-03-06T07:29:43.706Z,-1.26
2023-03-06T07:32:32.482Z,-1.26
2023-03-06T07:35:21.913Z,-1.26
2023-03-06T07:38:11.155Z,-1.19
2023-03-06T07:41:00.670Z,-1.15
2023-03-06T07:43:50.337Z,-1.14
2023-03-06T07:46:39.360Z,-1.14
2023-03-06T07:49:28.164Z,-1.09
2023-03-06T07:52:17.174Z,-1.04
2023-03-06T07:55:07.944Z,-1.00
2023-03-06T07:57:56.829Z,-1.00
2023-03-06T08:00:45.785Z,-1.00
2023-03-06T08:03:34.969Z,-1.01
2023-03-06T08:06:26.306Z,-0.99
2023-03-06T08:09:15.385Z,-0.97
2023-03-06T08:12:04.217Z,-0.95
2023-03-06T08:14:53.081Z,-0.92
2023-03-06T08:17:41.784Z,-0.92
2023-03-06T08:20:31.049Z,-0.92
2023-03-06T08:23:19.774Z,-0.85
2023-03-06T08:26:12.460Z,-0.80
2023-03-06T08:29:02.722Z,-0.68
2023-03-06T08:31:52.067Z,-0.56
2023-03-06T08:34:42.549Z,-0.45
2023-03-06T08:37:31.686Z,-0.34
2023-03-06T08:40:20.341Z,-0.21
2023-03-06T08:43:12.986Z,-0.08
2023-03-06T08:46:03.700Z,0.01
2023-03-06T08:48:52.719Z,0.12
2023-03-06T08:51:42.489Z,0.27
2023-03-06T08:54:31.497Z,0.45
2023-03-06T08:57:20.054Z,0.64
2023-03-06T09:00:11.098Z,0.77
2023-03-06T09:02:59.809Z,0.81
2023-03-06T09:05:48.517Z,0.84
2023-03-06T09:08:37.458Z,0.90
2023-03-06T09:11:27.353Z,1.00
2023-03-06T09:14:16.060Z,1.10
2023-03-06T09:17:04.868Z,1.19
2023-03-06T09:19:53.577Z,1.24
2023-03-06T09:22:42.678Z,1.32
2023-03-06T09:25:31.654Z,1.44
2023-03-06T09:28:20.614Z,1.50
2023-03-06T09:31:16.220Z,1.46
2023-03-06T09:34:05.227Z,1.47
2023-03-06T09:36:57.340Z,1.61
2023-03-06T09:39:46.506Z,1.80
2023-03-06T09:42:36.119Z,1.84
2023-03-06T09:45:24.933Z,1.93
2023-03-06T09:48:15.863Z,2.02
2023-03-06T09:51:14.876Z,2.08
2023-03-06T09:54:03.884Z,2.05
2023-03-06T09:56:52.689Z,1.95
2023-03-06T09:59:46.727Z,1.96
2023-03-06T10:02:42.532Z,1.97
2023-03-06T10:05:44.642Z,2.00
2023-03-06T10:08:45.994Z,2.04
2023-03-06T10:11:51.676Z,2.22
2023-03-06T10:14:47.759Z,2.46
2023-03-06T10:17:43.557Z,2.64
2023-03-06T10:20:50.005Z,2.76
2023-03-06T10:23:43.310Z,2.93
2023-03-06T10:26:38.309Z,3.05
2023-03-06T10:29:37.084Z,3.20
2023-03-06T10:32:48.235Z,3.40
2023-03-06T10:35:48.473Z,3.46
2023-03-06T10:38:37.756Z,3.54
2023-03-06T10:41:32.017Z,3.59
2023-03-06T10:44:22.550Z,3.70
2023-03-06T10:47:35.278Z,3.77
2023-03-06T10:50:30.689Z,3.79
2023-03-06T10:53:23.268Z,3.88
2023-03-06T10:56:12.227Z,3.92
2023-03-06T10:59:21.691Z,3.93
2023-03-06T11:02:41.601Z,3.86
2023-03-06T11:05:30.541Z,3.81
2023-03-06T11:08:23.223Z,3.71
2023-03-06T11:11:18.536Z,3.62
2023-03-06T11:14:23.333Z,3.56
2023-03-06T11:17:33.848Z,3.58
2023-03-06T11:20:31.766Z,3.57
2023-03-06T11:23:33.040Z,3.47
2023-03-06T11:26:40.039Z,3.50
2023-03-06T11:29:47.132Z,3.52
2023-03-06T11:33:16.102Z,3.56
2023-03-06T11:36:22.910Z,3.63
2023-03-06T11:39:37.177Z,3.69
2023-03-06T11:42:27.183Z,3.74
2023-03-06T11:45:45.148Z,3.72
2023-03-06T11:48:39.291Z,3.67
2023-03-06T11:51:35.893Z,3.63
2023-03-06T11:54:24.896Z,3.64
2023-03-06T11:57:20.725Z,3.71
2023-03-06T12:00:32.994Z,3.76
2023-03-06T12:03:52.945Z,3.80
2023-03-06T12:06:47.164Z,3.84
2023-03-06T12:10:07.168Z,3.84
2023-03-06T12:13:19.108Z,3.89
2023-03-06T12:16:31.490Z,3.88
2023-03-06T12:19:29.271Z,3.94
2023-03-06T12:22:58.176Z,3.94
2023-03-06T12:25:59.281Z,3.94
2023-03-06T12:29:06.483Z,3.95
2023-03-06T12:32:08.824Z,4.01
2023-03-06T12:35:10.727Z,4.04
2023-03-06T12:38:18.219Z,4.09
2023-03-06T12:41:26.316Z,4.14
2023-03-06T12:44:50.683Z,4.15
2023-03-06T12:47:44.908Z,4.15
2023-03-06T12:50:38.566Z,4.14
2023-03-06T12:53:31.054Z,4.17
2023-03-06T12:56:21.895Z,4.13
2023-03-06T12:59:44.760Z,4.06
2023-03-06T13:03:01.890Z,3.97
2023-03-06T13:06:00.789Z,3.92
2023-03-06T13:09:01.607Z,3.90
2023-03-06T13:12:25.610Z,3.87
2023-03-06T13:16:04.184Z,3.87
2023-03-06T13:19:12.811Z,3.86
2023-03-06T13:22:02.531Z,3.87
2023-03-06T13:25:11.138Z,3.87
2023-03-06T13:28:03.356Z,3.86
2023-03-06T13:30:53.284Z,3.84
2023-03-06T13:33:44.755Z,3.85
2023-03-06T13:36:34.410Z,3.85
2023-03-06T13:39:23.162Z,3.85
2023-03-06T13:42:25.936Z,3.81
2023-03-06T13:45:25.749Z,3.80
2023-03-06T13:48:43.208Z,3.79
2023-03-06T13:51:36.032Z,3.82
2023-03-06T13:54:34.713Z,3.86
2023-03-06T13:57:29.945Z,3.86
2023-03-06T14:00:37.144Z,3.91
2023-03-06T14:03:35.219Z,3.95
2023-03-06T14:06:36.034Z,3.98
2023-03-06T14:09:29.995Z,3.98
2023-03-06T14:12:28.806Z,4.02
2023-03-06T14:15:30.585Z,4.07
2023-03-06T14:18:36.748Z,4.08
2023-03-06T14:21:56.521Z,4.03
2023-03-06T14:24:55.414Z,3.98
2023-03-06T14:27:48.438Z,3.94
2023-03-06T14:30:37.294Z,3.87
2023-03-06T14:33:58.606Z,3.79
2023-03-06T14:36:51.510Z,3.74
2023-03-06T14:39:42.984Z,3.64
2023-03-06T14:42:31.956Z,3.46
2023-03-06T14:45:21.392Z,3.30
2023-03-06T14:48:15.450Z,3.12
2023-03-06T14:51:04.380Z,2.97
2023-03-06T14:53:54.807Z,2.85
2023-03-06T14:56:47.511Z,2.77
2023-03-06T14:59:44.010Z,2.71
2023-03-06T15:02:33.934Z,2.67
2023-03-06T15:05:28.987Z,2.68
2023-03-06T15:08:23.465Z,2.60
2023-03-06T15:11:12.625Z,2.57
2023-03-06T15:14:05.538Z,2.54
2023-03-06T15:16:54.477Z,2.52
2023-03-06T15:19:48.674Z,2.47
2023-03-06T15:22:39.047Z,2.41
2023-03-06T15:25:30.512Z,2.34
2023-03-06T15:28:28.468Z,2.33
2023-03-06T15:31:23.154Z,2.29
2023-03-06T15:34:17.549Z,2.27
2023-03-06T15:37:28.860Z,2.23
2023-03-06T15:40:20.868Z,2.18
2023-03-06T15:43:11.180Z,2.14
2023-03-06T15:46:01.214Z,2.08
2023-03-06T15:49:04.288Z,2.01
2023-03-06T15:51:53.164Z,1.93
2023-03-06T15:54:41.963Z,1.84
2023-03-06T15:57:31.672Z,1.80
2023-03-06T16:00:38.598Z,1.78
2023-03-06T16:03:27.301Z,1.78
2023-03-06T16:06:27.392Z,1.78
2023-03-06T16:09:18.652Z,1.74
2023-03-06T16:12:14.713Z,1.67
2023-03-06T16:15:04.499Z,1.58
2023-03-06T16:17:53.301Z,1.48
2023-03-06T16:20:42.275Z,1.40
2023-03-06T16:23:31.155Z,1.30
2023-03-06T16:26:27.155Z,1.20
2023-03-06T16:29:26.878Z,1.15
2023-03-06T16:32:15.677Z,1.11
2023-03-06T16:35:05.008Z,1.11
2023-03-06T16:37:53.968Z,1.13
2023-03-06T16:40:42.959Z,1.15
2023-03-06T16:43:32.022Z,1.13
2023-03-06T16:46:23.852Z,1.10
2023-03-06T16:49:32.875Z,1.08
2023-03-06T16:52:21.635Z,1.09
2023-03-06T16:55:10.435Z,1.08
2023-03-06T16:57:59.266Z,1.05
2023-03-06T17:00:48.215Z,1.03
2023-03-06T17:03:37.159Z,1.02
2023-03-06T17:06:25.924Z,1.01
2023-03-06T17:09:14.531Z,0.97
2023-03-06T17:12:03.322Z,0.95
2023-03-06T17:14:53.049Z,0.92
2023-03-06T17:17:41.913Z,0.89
2023-03-06T17:20:33.250Z,0.86
2023-03-06T17:23:26.368Z,0.82
2023-03-06T17:26:20.556Z,0.79
2023-03-06T17:29:09.868Z,0.74
2023-03-06T17:31:58.559Z,0.73
2023-03-06T17:34:48.040Z,0.74
2023-03-06T17:37:36.913Z,0.68
2023-03-06T17:40:25.670Z,0.61
2023-03-06T17:43:14.417Z,0.59
2023-03-06T17:46:05.468Z,0.60
2023-03-06T17:48:55.234Z,0.65
2023-03-06T17:51:44.182Z,0.67
2023-03-06T17:54:33.407Z,0.69
2023-03-06T17:57:22.392Z,0.70
2023-03-06T18:00:12.009Z,0.70
2023-03-06T18:03:04.845Z,0.70
2023-03-06T18:05:59.866Z,0.69
2023-03-06T18:08:52.377Z,0.70
2023-03-06T18:11:42.288Z,0.69
2023-03-06T18:14:31.095Z,0.69
2023-03-06T18:17:19.912Z,0.66
2023-03-06T18:20:09.540Z,0.66
2023-03-06T18:23:03.359Z,0.63
2023-03-06T18:25:53.016Z,0.58
2023-03-06T18:28:47.171Z,0.53
2023-03-06T18:31:38.787Z,0.50
2023-03-06T18:34:27.711Z,0.47
2023-03-06T18:37:18.078Z,0.44
2023-03-06T18:40:08.028Z,0.42
2023-03-06T18:42:56.797Z,0.42
2023-03-06T18:45:54.315Z,0.44
2023-03-06T18:48:43.092Z,0.44
2023-03-06T18:51:32.814Z,0.40
2023-03-06T18:54:21.632Z,0.38
2023-03-06T18:57:11.399Z,0.37
2023-03-06T19:00:00.278Z,0.36
2023-03-06T19:02:50.039Z,0.37
2023-03-06T19:05:40.869Z,0.40
2023-03-06T19:08:29.615Z,0.37
2023-03-06T19:11:18.621Z,0.36
2023-03-06T19:14:07.762Z,0.36
2023-03-06T19:16:56.737Z,0.33
2023-03-06T19:19:45.483Z,0.31
2023-03-06T19:22:37.429Z,0.32
2023-03-06T19:25:26.291Z,0.34
2023-03-06T19:28:15.365Z,0.35
2023-03-06T19:31:16.124Z,0.39
2023-03-06T19:34:04.956Z,0.39
2023-03-06T19:36:53.742Z,0.36
2023-03-06T19:39:43.890Z,0.33
2023-03-06T19:42:32.774Z,0.32
2023-03-06T19:45:21.868Z,0.30
2023-03-06T19:48:12.481Z,0.28
2023-03-06T19:51:06.330Z,0.24
2023-03-06T19:53:56.486Z,0.20
2023-03-06T19:56:45.469Z,0.17
2023-03-06T19:59:34.313Z,0.15
2023-03-06T20:02:27.419Z,0.13
2023-03-06T20:05:17.064Z,0.10
2023-03-06T20:08:05.719Z,0.07
2023-03-06T20:10:54.387Z,0.03
2023-03-06T20:13:47.348Z,-0.02
2023-03-06T20:16:37.271Z,-0.07
2023-03-06T20:19:26.194Z,-0.10
2023-03-06T20:22:15.013Z,-0.10
2023-03-06T20:25:03.819Z,-0.12
2023-03-06T20:27:52.630Z,-0.17
2023-03-06T20:30:41.392Z,-0.19
2023-03-06T20:33:30.266Z,-0.24
2023-03-06T20:36:35.761Z,-0.30
2023-03-06T20:39:25.517Z,-0.30
2023-03-06T20:42:14.691Z,-0.26
2023-03-06T20:45:04.542Z,-0.20
2023-03-06T20:47:56.505Z,-0.14
2023-03-06T20:50:45.204Z,-0.07
2023-03-06T20:53:35.442Z,-0.02
2023-03-06T20:56:26.767Z,0.03
2023-03-06T20:59:16.171Z,0.06
2023-03-06T21:02:04.929Z,0.08
2023-03-06T21:04:53.759Z,0.10
2023-03-06T21:07:42.839Z,0.13
2023-03-06T21:10:31.844Z,0.17
2023-03-06T21:13:20.529Z,0.20
2023-03-06T21:16:14.914Z,0.22
2023-03-06T21:19:03.865Z,0.22
2023-03-06T21:21:52.740Z,0.18
2023-03-06T21:24:41.540Z,0.14
2023-03-06T21:27:30.533Z,0.09
2023-03-06T21:30:19.428Z,0.07
2023-03-06T21:33:10.939Z,0.05
2023-03-06T21:35:59.838Z,0.04
2023-03-06T21:38:49.702Z,0.05
2023-03-06T21:41:38.562Z,0.04
2023-03-06T21:44:27.732Z,0.02
2023-03-06T21:47:16.589Z,-0.01
2023-03-06T21:50:06.790Z,-0.03
2023-03-06T21:52:56.789Z,-0.05
2023-03-06T21:55:45.473Z,-0.08
2023-03-06T21:58:34.174Z,-0.10
2023-03-06T22:01:25.910Z,-0.11
2023-03-06T22:04:14.843Z,-0.11
2023-03-06T22:07:03.709Z,-0.12
2023-03-06T22:09:53.844Z,-0.13
2023-03-06T22:12:42.914Z,-0.18
2023-03-06T22:15:31.786Z,-0.21
2023-03-06T22:18:20.472Z,-0.22
2023-03-06T22:21:12.192Z,-0.23
2023-03-06T22:24:01.005Z,-0.20
2023-03-06T22:26:50.125Z,-0.18
2023-03-06T22:29:39.014Z,-0.16
2023-03-06T22:32:27.783Z,-0.16
2023-03-06T22:35:16.819Z,-0.17
2023-03-06T22:38:05.586Z,-0.21
2023-03-06T22:40:57.283Z,-0.24
2023-03-06T22:43:45.999Z,-0.23
2023-03-06T22:46:34.820Z,-0.23
2023-03-06T22:49:23.717Z,-0.23
2023-03-06T22:52:15.130Z,-0.19
2023-03-06T22:55:04.605Z,-0.15
2023-03-06T22:57:53.736Z,-0.15
2023-03-06T23:00:42.476Z,-0.16
2023-03-06T23:03:31.568Z,-0.14
2023-03-06T23:06:22.447Z,-0.13
2023-03-06T23:09:21.539Z,-0.16
2023-03-06T23:12:28.972Z,-0.14
2023-03-06T23:15:37.184Z,-0.12
2023-03-06T23:18:44.897Z,-0.11
2023-03-06T23:21:52.010Z,-0.08
2023-03-06T23:24:59.478Z,-0.09
2023-03-06T23:27:48.519Z,-0.13
2023-03-06T23:30:41.399Z,-0.13
2023-03-06T23:33:30.269Z,-0.17
2023-03-06T23:36:19.421Z,-0.20
2023-03-06T23:39:08.956Z,-0.22
2023-03-06T23:41:57.841Z,-0.23
2023-03-06T23:44:46.784Z,-0.25
2023-03-06T23:47:35.539Z,-0.23
2023-03-06T23:50:24.946Z,-0.22
2023-03-06T23:53:14.579Z,-0.25
2023-03-06T23:56:06.408Z,-0.28
2023-03-06T23:58:55.551Z,-0.28
